TimeCDT,TemperatureF,Dew PointF,Humidity,Sea Level PressureIn,VisibilityMPH,Wind Direction,Wind SpeedMPH,Gust SpeedMPH,PrecipitationIn,Events,Conditions,WindDirDegrees,DateUTC
12:15 AM,33.8,26.6,75,30.32,10.0,North,16.1,20.7,N/A,,Overcast,10,2012-10-06 05:15:00
12:35 AM,33.8,26.6,75,30.32,10.0,North,16.1,-,N/A,,Overcast,10,2012-10-06 05:35:00
12:55 AM,33.8,26.6,75,30.32,10.0,North,10.4,-,N/A,,Overcast,350,2012-10-06 05:55:00
1:15 AM,33.8,26.6,75,30.32,10.0,North,11.5,-,N/A,,Overcast,350,2012-10-06 06:15:00
1:35 AM,33.8,28.4,81,30.32,10.0,North,10.4,-,N/A,,Overcast,350,2012-10-06 06:35:00
1:55 AM,33.8,28.4,81,30.32,10.0,North,8.1,-,N/A,,Overcast,350,2012-10-06 06:55:00
2:15 AM,33.8,28.4,81,30.32,10.0,North,9.2,-,N/A,,Overcast,360,2012-10-06 07:15:00
2:35 AM,33.8,28.4,81,30.33,10.0,North,8.1,-,N/A,,Overcast,360,2012-10-06 07:35:00
2:55 AM,33.8,26.6,75,30.33,10.0,North,10.4,16.1,N/A,,Overcast,10,2012-10-06 07:55:00
3:15 AM,33.8,26.6,75,30.33,10.0,North,9.2,-,N/A,,Overcast,360,2012-10-06 08:15:00
3:35 AM,33.8,26.6,75,30.33,10.0,North,9.2,-,N/A,,Overcast,360,2012-10-06 08:35:00
3:55 AM,33.8,28.4,81,30.33,10.0,North,8.1,-,N/A,,Overcast,10,2012-10-06 08:55:00
4:15 AM,33.8,26.6,75,30.32,10.0,North,9.2,-,N/A,,Overcast,360,2012-10-06 09:15:00
4:35 AM,33.8,26.6,75,30.32,10.0,North,4.6,-,N/A,,Overcast,360,2012-10-06 09:35:00
4:55 AM,32.0,26.6,80,30.32,10.0,NNW,5.8,-,N/A,,Overcast,340,2012-10-06 09:55:00
5:15 AM,33.8,26.6,75,30.33,10.0,NNW,3.5,-,N/A,,Overcast,340,2012-10-06 10:15:00
5:35 AM,33.8,28.4,81,30.33,10.0,NNW,4.6,-,N/A,,Overcast,330,2012-10-06 10:35:00
5:55 AM,33.8,28.4,81,30.33,10.0,North,5.8,-,N/A,,Overcast,350,2012-10-06 10:55:00
6:15 AM,33.8,26.6,75,30.33,10.0,NW,5.8,-,N/A,,Overcast,310,2012-10-06 11:15:00
6:35 AM,32.0,28.4,87,30.33,10.0,WNW,6.9,-,N/A,,Mostly Cloudy,300,2012-10-06 11:35:00
6:55 AM,32.0,28.4,87,30.33,10.0,WNW,6.9,-,N/A,,Overcast,300,2012-10-06 11:55:00
7:15 AM,30.2,26.6,86,30.34,10.0,NW,9.2,-,N/A,,Overcast,310,2012-10-06 12:15:00
7:35 AM,30.2,26.6,86,30.34,10.0,WNW,6.9,-,N/A,,Overcast,300,2012-10-06 12:35:00
7:55 AM,30.2,26.6,86,30.34,10.0,WNW,9.2,-,N/A,,Overcast,300,2012-10-06 12:55:00
8:15 AM,30.2,24.8,80,30.34,10.0,NW,6.9,-,N/A,,Mostly Cloudy,310,2012-10-06 13:15:00
8:35 AM,30.2,26.6,86,30.34,10.0,NW,9.2,-,N/A,,Partly Cloudy,310,2012-10-06 13:35:00
8:55 AM,32.0,26.6,80,30.34,10.0,WNW,8.1,-,N/A,,Clear,300,2012-10-06 13:55:00
9:15 AM,33.8,26.6,75,30.34,10.0,WNW,6.9,-,N/A,,Clear,300,2012-10-06 14:15:00
9:35 AM,35.6,26.6,70,30.34,10.0,WNW,8.1,-,N/A,,Clear,290,2012-10-06 14:35:00
9:55 AM,35.6,28.4,75,30.34,10.0,West,10.4,-,N/A,,Clear,280,2012-10-06 14:55:00
10:15 AM,37.4,28.4,70,30.35,10.0,West,12.7,-,N/A,,Clear,280,2012-10-06 15:15:00
10:35 AM,37.4,26.6,65,30.34,10.0,West,12.7,-,N/A,,Clear,280,2012-10-06 15:35:00
10:55 AM,37.4,26.6,65,30.34,10.0,West,13.8,-,N/A,,Clear,270,2012-10-06 15:55:00
11:15 AM,37.4,26.6,65,30.34,10.0,West,13.8,-,N/A,,Clear,280,2012-10-06 16:15:00
11:35 AM,37.4,26.6,65,30.34,10.0,West,13.8,-,N/A,,Clear,280,2012-10-06 16:35:00
11:55 AM,39.2,26.6,61,30.33,10.0,West,13.8,17.3,N/A,,Clear,280,2012-10-06 16:55:00
12:15 PM,39.2,26.6,61,30.32,10.0,West,11.5,19.6,N/A,,Clear,280,2012-10-06 17:15:00
12:35 PM,39.2,26.6,61,30.32,10.0,West,15.0,-,N/A,,Clear,270,2012-10-06 17:35:00
12:55 PM,41.0,26.6,57,30.32,10.0,WNW,13.8,19.6,N/A,,Clear,290,2012-10-06 17:55:00
1:15 PM,42.8,26.6,53,30.31,10.0,West,15.0,-,N/A,,Clear,280,2012-10-06 18:15:00
1:35 PM,41.0,23.0,49,30.29,10.0,West,15.0,20.7,N/A,,Clear,270,2012-10-06 18:35:00
1:55 PM,42.8,23.0,46,30.28,10.0,WNW,12.7,-,N/A,,Clear,300,2012-10-06 18:55:00
2:15 PM,42.8,21.2,42,30.27,10.0,WNW,12.7,-,N/A,,Clear,290,2012-10-06 19:15:00
2:35 PM,42.8,23.0,46,30.27,10.0,West,13.8,19.6,N/A,,Clear,280,2012-10-06 19:35:00
2:55 PM,42.8,21.2,42,30.25,10.0,WNW,13.8,17.3,N/A,,Clear,290,2012-10-06 19:55:00
3:15 PM,44.6,21.2,39,30.24,10.0,WNW,15.0,-,N/A,,Clear,290,2012-10-06 20:15:00
3:35 PM,44.6,21.2,39,30.24,10.0,West,12.7,-,N/A,,Clear,260,2012-10-06 20:35:00
3:55 PM,44.6,21.2,39,30.23,10.0,West,13.8,19.6,N/A,,Clear,270,2012-10-06 20:55:00
4:15 PM,44.6,21.2,39,30.21,10.0,West,12.7,18.4,N/A,,Clear,270,2012-10-06 21:15:00
4:35 PM,44.6,21.2,39,30.20,10.0,West,13.8,-,N/A,,Clear,260,2012-10-06 21:35:00